sensor_id;sensor_type;location;lat;lon;timestamp;P1;durP1;ratioP1;P2;durP2;ratioP2
36799;SDS011;22752;51.960;5.886;2022-10-16T00:00:34;6.47;;;2.40;;
36799;SDS011;22752;51.960;5.886;2022-10-16T00:03:01;6.90;;;2.40;;
36799;SDS011;22752;51.960;5.886;2022-10-16T00:05:27;6.22;;;2.28;;
36799;SDS011;22752;51.960;5.886;2022-10-16T00:07:53;5.15;;;2.28;;
36799;SDS011;22752;51.960;5.886;2022-10-16T00:10:19;4.93;;;2.22;;
36799;SDS011;22752;51.960;5.886;2022-10-16T00:12:44;8.70;;;2.35;;
36799;SDS011;22752;51.960;5.886;2022-10-16T00:15:10;5.18;;;2.30;;
36799;SDS011;22752;51.960;5.886;2022-10-16T00:17:36;4.30;;;2.55;;
36799;SDS011;22752;51.960;5.886;2022-10-16T00:20:02;6.05;;;2.38;;
36799;SDS011;22752;51.960;5.886;2022-10-16T00:22:28;6.80;;;2.17;;
36799;SDS011;22752;51.960;5.886;2022-10-16T00:24:53;6.20;;;2.55;;
36799;SDS011;22752;51.960;5.886;2022-10-16T00:27:19;4.65;;;2.75;;
36799;SDS011;22752;51.960;5.886;2022-10-16T00:29:48;6.35;;;3.15;;
36799;SDS011;22752;51.960;5.886;2022-10-16T00:32:16;7.63;;;2.95;;
36799;SDS011;22752;51.960;5.886;2022-10-16T00:34:42;5.30;;;3.10;;
36799;SDS011;22752;51.960;5.886;2022-10-16T00:37:08;6.60;;;2.88;;
36799;SDS011;22752;51.960;5.886;2022-10-16T00:39:33;9.80;;;3.58;;
36799;SDS011;22752;51.960;5.886;2022-10-16T00:41:59;6.25;;;3.60;;
36799;SDS011;22752;51.960;5.886;2022-10-16T00:47:45;6.78;;;3.25;;
36799;SDS011;22752;51.960;5.886;2022-10-16T00:50:50;5.75;;;3.13;;
36799;SDS011;22752;51.960;5.886;2022-10-16T00:53:00;5.18;;;3.20;;
36799;SDS011;22752;51.960;5.886;2022-10-16T00:55:27;8.80;;;3.90;;
36799;SDS011;22752;51.960;5.886;2022-10-16T00:57:55;7.25;;;3.00;;
36799;SDS011;22752;51.960;5.886;2022-10-16T01:00:23;6.47;;;3.17;;
36799;SDS011;22752;51.960;5.886;2022-10-16T01:02:55;5.82;;;2.90;;
36799;SDS011;22752;51.960;5.886;2022-10-16T01:05:23;5.75;;;3.13;;
36799;SDS011;22752;51.960;5.886;2022-10-16T01:10:49;8.30;;;3.08;;
36799;SDS011;22752;51.960;5.886;2022-10-16T01:13:24;6.13;;;3.33;;
36799;SDS011;22752;51.960;5.886;2022-10-16T01:16:05;4.88;;;2.92;;
36799;SDS011;22752;51.960;5.886;2022-10-16T01:18:37;7.40;;;3.20;;
36799;SDS011;22752;51.960;5.886;2022-10-16T01:21:22;4.65;;;3.40;;
36799;SDS011;22752;51.960;5.886;2022-10-16T01:26:27;7.05;;;3.70;;
36799;SDS011;22752;51.960;5.886;2022-10-16T01:31:29;7.93;;;3.30;;
36799;SDS011;22752;51.960;5.886;2022-10-16T01:34:02;6.60;;;3.47;;
36799;SDS011;22752;51.960;5.886;2022-10-16T01:36:33;5.03;;;3.60;;
36799;SDS011;22752;51.960;5.886;2022-10-16T01:39:03;6.38;;;3.20;;
36799;SDS011;22752;51.960;5.886;2022-10-16T01:41:32;8.25;;;3.78;;
36799;SDS011;22752;51.960;5.886;2022-10-16T01:46:33;4.88;;;3.00;;
36799;SDS011;22752;51.960;5.886;2022-10-16T01:49:01;8.02;;;3.75;;
36799;SDS011;22752;51.960;5.886;2022-10-16T01:51:28;7.80;;;3.85;;
36799;SDS011;22752;51.960;5.886;2022-10-16T01:53:55;6.25;;;3.05;;
36799;SDS011;22752;51.960;5.886;2022-10-16T01:56:24;8.38;;;3.30;;
36799;SDS011;22752;51.960;5.886;2022-10-16T01:58:55;6.60;;;3.55;;
36799;SDS011;22752;51.960;5.886;2022-10-16T02:01:26;9.18;;;3.50;;
36799;SDS011;22752;51.960;5.886;2022-10-16T02:03:56;4.57;;;3.03;;
36799;SDS011;22752;51.960;5.886;2022-10-16T02:06:26;5.25;;;3.25;;
36799;SDS011;22752;51.960;5.886;2022-10-16T02:08:53;5.57;;;3.53;;
36799;SDS011;22752;51.960;5.886;2022-10-16T02:11:18;6.45;;;3.05;;
36799;SDS011;22752;51.960;5.886;2022-10-16T02:13:55;5.07;;;2.78;;
36799;SDS011;22752;51.960;5.886;2022-10-16T02:16:42;5.40;;;2.80;;
36799;SDS011;22752;51.960;5.886;2022-10-16T02:19:09;7.28;;;3.08;;
36799;SDS011;22752;51.960;5.886;2022-10-16T02:26:51;6.18;;;3.33;;
36799;SDS011;22752;51.960;5.886;2022-10-16T02:29:24;5.15;;;3.28;;
36799;SDS011;22752;51.960;5.886;2022-10-16T02:31:58;5.82;;;3.15;;
36799;SDS011;22752;51.960;5.886;2022-10-16T02:34:28;6.35;;;3.08;;
36799;SDS011;22752;51.960;5.886;2022-10-16T02:36:56;7.55;;;3.10;;
36799;SDS011;22752;51.960;5.886;2022-10-16T02:39:23;3.88;;;2.50;;
36799;SDS011;22752;51.960;5.886;2022-10-16T02:41:51;6.03;;;2.50;;
36799;SDS011;22752;51.960;5.886;2022-10-16T02:44:16;3.33;;;2.55;;
36799;SDS011;22752;51.960;5.886;2022-10-16T02:46:42;6.30;;;2.90;;
36799;SDS011;22752;51.960;5.886;2022-10-16T02:49:08;6.95;;;2.65;;
36799;SDS011;22752;51.960;5.886;2022-10-16T02:51:33;5.50;;;2.90;;
36799;SDS011;22752;51.960;5.886;2022-10-16T02:53:59;5.57;;;2.80;;
36799;SDS011;22752;51.960;5.886;2022-10-16T02:56:24;4.45;;;2.63;;
36799;SDS011;22752;51.960;5.886;2022-10-16T02:58:50;4.90;;;3.00;;
36799;SDS011;22752;51.960;5.886;2022-10-16T03:01:16;6.88;;;2.60;;
36799;SDS011;22752;51.960;5.886;2022-10-16T03:03:41;9.93;;;2.40;;
36799;SDS011;22752;51.960;5.886;2022-10-16T03:06:07;3.08;;;2.25;;
36799;SDS011;22752;51.960;5.886;2022-10-16T03:08:33;4.88;;;2.63;;
36799;SDS011;22752;51.960;5.886;2022-10-16T03:10:59;3.67;;;2.10;;
36799;SDS011;22752;51.960;5.886;2022-10-16T03:13:24;4.40;;;2.60;;
36799;SDS011;22752;51.960;5.886;2022-10-16T03:15:50;4.45;;;3.03;;
36799;SDS011;22752;51.960;5.886;2022-10-16T03:18:16;4.18;;;2.60;;
36799;SDS011;22752;51.960;5.886;2022-10-16T03:20:44;4.60;;;2.50;;
36799;SDS011;22752;51.960;5.886;2022-10-16T03:23:10;3.63;;;2.53;;
36799;SDS011;22752;51.960;5.886;2022-10-16T03:25:36;4.60;;;2.67;;
36799;SDS011;22752;51.960;5.886;2022-10-16T03:28:02;4.72;;;2.47;;
36799;SDS011;22752;51.960;5.886;2022-10-16T03:30:28;4.63;;;2.60;;
36799;SDS011;22752;51.960;5.886;2022-10-16T03:32:53;3.13;;;2.20;;
36799;SDS011;22752;51.960;5.886;2022-10-16T03:35:23;3.28;;;2.40;;
36799;SDS011;22752;51.960;5.886;2022-10-16T03:37:49;8.05;;;2.38;;
36799;SDS011;22752;51.960;5.886;2022-10-16T03:40:15;4.20;;;2.33;;
36799;SDS011;22752;51.960;5.886;2022-10-16T03:42:42;3.30;;;2.47;;
36799;SDS011;22752;51.960;5.886;2022-10-16T03:45:08;5.57;;;2.65;;
36799;SDS011;22752;51.960;5.886;2022-10-16T03:47:35;4.20;;;2.40;;
36799;SDS011;22752;51.960;5.886;2022-10-16T03:50:01;5.65;;;2.25;;
36799;SDS011;22752;51.960;5.886;2022-10-16T03:52:27;4.60;;;2.17;;
36799;SDS011;22752;51.960;5.886;2022-10-16T03:54:53;7.22;;;2.85;;
36799;SDS011;22752;51.960;5.886;2022-10-16T03:57:19;4.78;;;2.45;;
36799;SDS011;22752;51.960;5.886;2022-10-16T03:59:45;3.47;;;2.38;;
36799;SDS011;22752;51.960;5.886;2022-10-16T04:02:11;4.38;;;2.58;;
36799;SDS011;22752;51.960;5.886;2022-10-16T04:04:37;2.95;;;2.28;;
36799;SDS011;22752;51.960;5.886;2022-10-16T04:07:03;5.13;;;2.45;;
36799;SDS011;22752;51.960;5.886;2022-10-16T04:09:29;3.72;;;2.20;;
36799;SDS011;22752;51.960;5.886;2022-10-16T04:11:54;5.65;;;2.80;;
36799;SDS011;22752;51.960;5.886;2022-10-16T04:14:20;5.85;;;2.70;;
36799;SDS011;22752;51.960;5.886;2022-10-16T04:16:45;3.13;;;2.20;;
36799;SDS011;22752;51.960;5.886;2022-10-16T04:19:11;8.20;;;2.58;;
36799;SDS011;22752;51.960;5.886;2022-10-16T04:21:37;3.88;;;2.47;;
36799;SDS011;22752;51.960;5.886;2022-10-16T04:24:02;3.85;;;2.55;;
36799;SDS011;22752;51.960;5.886;2022-10-16T04:26:28;7.57;;;2.97;;
36799;SDS011;22752;51.960;5.886;2022-10-16T04:28:54;5.55;;;2.53;;
36799;SDS011;22752;51.960;5.886;2022-10-16T04:31:20;4.38;;;2.50;;
36799;SDS011;22752;51.960;5.886;2022-10-16T04:33:46;5.10;;;2.45;;
36799;SDS011;22752;51.960;5.886;2022-10-16T04:36:12;3.33;;;2.50;;
36799;SDS011;22752;51.960;5.886;2022-10-16T04:38:37;5.68;;;2.38;;
36799;SDS011;22752;51.960;5.886;2022-10-16T04:41:04;7.15;;;2.30;;
36799;SDS011;22752;51.960;5.886;2022-10-16T04:43:30;5.35;;;2.67;;
36799;SDS011;22752;51.960;5.886;2022-10-16T04:45:56;6.35;;;3.15;;
36799;SDS011;22752;51.960;5.886;2022-10-16T04:48:22;3.45;;;2.30;;
36799;SDS011;22752;51.960;5.886;2022-10-16T04:50:47;6.40;;;2.40;;
36799;SDS011;22752;51.960;5.886;2022-10-16T04:53:13;4.70;;;2.50;;
36799;SDS011;22752;51.960;5.886;2022-10-16T04:55:39;3.72;;;2.60;;
36799;SDS011;22752;51.960;5.886;2022-10-16T04:58:06;6.20;;;2.50;;
36799;SDS011;22752;51.960;5.886;2022-10-16T05:00:32;4.68;;;2.60;;
36799;SDS011;22752;51.960;5.886;2022-10-16T05:02:58;4.97;;;2.70;;
36799;SDS011;22752;51.960;5.886;2022-10-16T05:05:25;4.65;;;2.40;;
36799;SDS011;22752;51.960;5.886;2022-10-16T05:07:52;3.85;;;2.30;;
36799;SDS011;22752;51.960;5.886;2022-10-16T05:10:18;3.78;;;2.45;;
36799;SDS011;22752;51.960;5.886;2022-10-16T05:12:44;2.72;;;2.20;;
36799;SDS011;22752;51.960;5.886;2022-10-16T05:15:10;4.05;;;2.47;;
36799;SDS011;22752;51.960;5.886;2022-10-16T05:17:35;3.00;;;2.17;;
36799;SDS011;22752;51.960;5.886;2022-10-16T05:20:01;3.60;;;2.30;;
36799;SDS011;22752;51.960;5.886;2022-10-16T05:22:28;2.90;;;2.30;;
36799;SDS011;22752;51.960;5.886;2022-10-16T05:24:54;5.15;;;2.50;;
36799;SDS011;22752;51.960;5.886;2022-10-16T05:27:20;3.83;;;2.40;;
36799;SDS011;22752;51.960;5.886;2022-10-16T05:29:46;4.47;;;2.20;;
36799;SDS011;22752;51.960;5.886;2022-10-16T05:32:13;3.72;;;2.33;;
36799;SDS011;22752;51.960;5.886;2022-10-16T05:34:42;5.45;;;2.53;;
36799;SDS011;22752;51.960;5.886;2022-10-16T05:37:09;6.60;;;2.03;;
36799;SDS011;22752;51.960;5.886;2022-10-16T05:39:36;5.90;;;2.58;;
36799;SDS011;22752;51.960;5.886;2022-10-16T05:42:02;3.58;;;2.13;;
36799;SDS011;22752;51.960;5.886;2022-10-16T05:44:28;5.47;;;2.70;;
36799;SDS011;22752;51.960;5.886;2022-10-16T05:46:54;6.70;;;2.70;;
36799;SDS011;22752;51.960;5.886;2022-10-16T05:49:20;8.82;;;2.60;;
36799;SDS011;22752;51.960;5.886;2022-10-16T05:51:45;4.50;;;2.80;;
36799;SDS011;22752;51.960;5.886;2022-10-16T05:54:11;4.05;;;2.90;;
36799;SDS011;22752;51.960;5.886;2022-10-16T05:56:37;4.13;;;2.63;;
36799;SDS011;22752;51.960;5.886;2022-10-16T05:59:03;7.32;;;2.83;;
36799;SDS011;22752;51.960;5.886;2022-10-16T06:01:29;3.73;;;2.60;;
36799;SDS011;22752;51.960;5.886;2022-10-16T06:03:56;3.83;;;2.60;;
36799;SDS011;22752;51.960;5.886;2022-10-16T06:06:22;4.43;;;2.95;;
36799;SDS011;22752;51.960;5.886;2022-10-16T06:08:51;5.32;;;2.80;;
36799;SDS011;22752;51.960;5.886;2022-10-16T06:11:18;4.40;;;2.88;;
36799;SDS011;22752;51.960;5.886;2022-10-16T06:13:52;4.70;;;2.80;;
36799;SDS011;22752;51.960;5.886;2022-10-16T06:16:21;5.03;;;2.70;;
36799;SDS011;22752;51.960;5.886;2022-10-16T06:18:47;4.97;;;2.90;;
36799;SDS011;22752;51.960;5.886;2022-10-16T06:21:19;4.77;;;3.00;;
36799;SDS011;22752;51.960;5.886;2022-10-16T06:23:49;4.13;;;2.85;;
36799;SDS011;22752;51.960;5.886;2022-10-16T06:26:17;4.57;;;2.83;;
36799;SDS011;22752;51.960;5.886;2022-10-16T06:28:44;5.05;;;3.05;;
36799;SDS011;22752;51.960;5.886;2022-10-16T06:31:11;6.73;;;3.43;;
36799;SDS011;22752;51.960;5.886;2022-10-16T06:33:37;6.30;;;2.72;;
36799;SDS011;22752;51.960;5.886;2022-10-16T06:36:13;4.95;;;3.00;;
36799;SDS011;22752;51.960;5.886;2022-10-16T06:38:41;5.35;;;2.78;;
36799;SDS011;22752;51.960;5.886;2022-10-16T06:41:07;8.02;;;3.20;;
36799;SDS011;22752;51.960;5.886;2022-10-16T06:43:34;7.57;;;3.20;;
36799;SDS011;22752;51.960;5.886;2022-10-16T06:46:00;4.90;;;2.80;;
36799;SDS011;22752;51.960;5.886;2022-10-16T06:48:27;3.95;;;2.80;;
36799;SDS011;22752;51.960;5.886;2022-10-16T06:53:28;8.23;;;3.17;;
36799;SDS011;22752;51.960;5.886;2022-10-16T06:55:56;4.25;;;2.67;;
36799;SDS011;22752;51.960;5.886;2022-10-16T06:58:22;5.65;;;2.75;;
36799;SDS011;22752;51.960;5.886;2022-10-16T07:00:48;3.53;;;2.67;;
36799;SDS011;22752;51.960;5.886;2022-10-16T07:03:19;6.50;;;2.80;;
36799;SDS011;22752;51.960;5.886;2022-10-16T07:05:45;4.00;;;2.17;;
36799;SDS011;22752;51.960;5.886;2022-10-16T07:08:10;6.60;;;2.88;;
36799;SDS011;22752;51.960;5.886;2022-10-16T07:10:36;3.95;;;2.70;;
36799;SDS011;22752;51.960;5.886;2022-10-16T07:13:02;4.05;;;2.47;;
36799;SDS011;22752;51.960;5.886;2022-10-16T07:15:28;9.70;;;3.03;;
36799;SDS011;22752;51.960;5.886;2022-10-16T07:17:53;4.05;;;2.47;;
36799;SDS011;22752;51.960;5.886;2022-10-16T07:20:19;8.20;;;3.10;;
36799;SDS011;22752;51.960;5.886;2022-10-16T07:22:45;5.82;;;3.00;;
36799;SDS011;22752;51.960;5.886;2022-10-16T07:25:11;5.15;;;2.65;;
36799;SDS011;22752;51.960;5.886;2022-10-16T07:27:37;6.47;;;2.50;;
36799;SDS011;22752;51.960;5.886;2022-10-16T07:30:03;4.65;;;2.40;;
36799;SDS011;22752;51.960;5.886;2022-10-16T07:32:29;7.40;;;2.58;;
36799;SDS011;22752;51.960;5.886;2022-10-16T07:34:55;5.65;;;2.30;;
36799;SDS011;22752;51.960;5.886;2022-10-16T07:37:21;4.57;;;2.70;;
36799;SDS011;22752;51.960;5.886;2022-10-16T07:39:47;5.53;;;2.25;;
36799;SDS011;22752;51.960;5.886;2022-10-16T07:42:12;8.50;;;2.72;;
36799;SDS011;22752;51.960;5.886;2022-10-16T07:44:38;4.38;;;2.53;;
36799;SDS011;22752;51.960;5.886;2022-10-16T07:47:04;7.30;;;3.40;;
36799;SDS011;22752;51.960;5.886;2022-10-16T07:49:30;6.47;;;3.00;;
36799;SDS011;22752;51.960;5.886;2022-10-16T07:51:56;4.22;;;2.58;;
36799;SDS011;22752;51.960;5.886;2022-10-16T07:54:22;6.32;;;2.63;;
36799;SDS011;22752;51.960;5.886;2022-10-16T07:56:47;6.90;;;2.60;;
36799;SDS011;22752;51.960;5.886;2022-10-16T07:59:13;8.30;;;2.72;;
36799;SDS011;22752;51.960;5.886;2022-10-16T08:01:39;7.93;;;2.28;;
36799;SDS011;22752;51.960;5.886;2022-10-16T08:04:04;3.42;;;2.22;;
36799;SDS011;22752;51.960;5.886;2022-10-16T08:06:34;5.07;;;2.30;;
36799;SDS011;22752;51.960;5.886;2022-10-16T08:09:01;6.78;;;2.80;;
36799;SDS011;22752;51.960;5.886;2022-10-16T08:11:27;7.55;;;2.80;;
36799;SDS011;22752;51.960;5.886;2022-10-16T08:13:53;5.55;;;2.15;;
36799;SDS011;22752;51.960;5.886;2022-10-16T08:16:19;5.40;;;2.25;;
36799;SDS011;22752;51.960;5.886;2022-10-16T08:18:45;6.43;;;2.33;;
36799;SDS011;22752;51.960;5.886;2022-10-16T08:21:12;7.47;;;2.67;;
36799;SDS011;22752;51.960;5.886;2022-10-16T08:23:40;7.00;;;1.90;;
36799;SDS011;22752;51.960;5.886;2022-10-16T08:26:06;7.95;;;2.20;;
36799;SDS011;22752;51.960;5.886;2022-10-16T08:28:32;5.20;;;2.13;;
36799;SDS011;22752;51.960;5.886;2022-10-16T08:31:08;5.47;;;1.80;;
36799;SDS011;22752;51.960;5.886;2022-10-16T08:33:36;4.63;;;2.00;;
36799;SDS011;22752;51.960;5.886;2022-10-16T08:36:03;6.28;;;1.88;;
36799;SDS011;22752;51.960;5.886;2022-10-16T08:38:29;4.93;;;2.13;;
36799;SDS011;22752;51.960;5.886;2022-10-16T08:41:16;5.85;;;1.88;;
36799;SDS011;22752;51.960;5.886;2022-10-16T08:46:50;5.32;;;2.13;;
36799;SDS011;22752;51.960;5.886;2022-10-16T08:49:18;6.05;;;1.92;;
36799;SDS011;22752;51.960;5.886;2022-10-16T08:51:44;8.00;;;2.40;;
36799;SDS011;22752;51.960;5.886;2022-10-16T08:57:01;5.57;;;2.00;;
36799;SDS011;22752;51.960;5.886;2022-10-16T08:59:53;9.70;;;2.53;;
36799;SDS011;22752;51.960;5.886;2022-10-16T09:05:20;3.47;;;1.75;;
36799;SDS011;22752;51.960;5.886;2022-10-16T09:10:44;4.45;;;1.88;;
36799;SDS011;22752;51.960;5.886;2022-10-16T09:16:28;4.00;;;1.88;;
36799;SDS011;22752;51.960;5.886;2022-10-16T09:21:44;6.63;;;2.20;;
36799;SDS011;22752;51.960;5.886;2022-10-16T09:26:46;5.45;;;2.05;;
36799;SDS011;22752;51.960;5.886;2022-10-16T09:29:13;7.60;;;1.70;;
36799;SDS011;22752;51.960;5.886;2022-10-16T09:31:41;7.07;;;2.53;;
36799;SDS011;22752;51.960;5.886;2022-10-16T09:34:11;7.32;;;2.05;;
36799;SDS011;22752;51.960;5.886;2022-10-16T09:37:03;5.22;;;2.25;;
36799;SDS011;22752;51.960;5.886;2022-10-16T09:39:50;5.65;;;2.00;;
36799;SDS011;22752;51.960;5.886;2022-10-16T09:42:21;10.23;;;2.20;;
36799;SDS011;22752;51.960;5.886;2022-10-16T09:44:55;8.65;;;2.17;;
36799;SDS011;22752;51.960;5.886;2022-10-16T09:47:25;4.90;;;1.98;;
36799;SDS011;22752;51.960;5.886;2022-10-16T09:52:27;7.32;;;2.55;;
36799;SDS011;22752;51.960;5.886;2022-10-16T09:55:01;10.88;;;2.35;;
36799;SDS011;22752;51.960;5.886;2022-10-16T09:57:48;11.18;;;2.10;;
36799;SDS011;22752;51.960;5.886;2022-10-16T10:00:18;8.90;;;2.58;;
36799;SDS011;22752;51.960;5.886;2022-10-16T10:02:44;12.52;;;2.45;;
36799;SDS011;22752;51.960;5.886;2022-10-16T10:05:18;9.75;;;2.58;;
36799;SDS011;22752;51.960;5.886;2022-10-16T10:07:58;6.10;;;2.10;;
36799;SDS011;22752;51.960;5.886;2022-10-16T10:10:29;7.65;;;2.55;;
36799;SDS011;22752;51.960;5.886;2022-10-16T10:12:57;10.52;;;2.45;;
36799;SDS011;22752;51.960;5.886;2022-10-16T10:15:24;7.10;;;2.10;;
36799;SDS011;22752;51.960;5.886;2022-10-16T10:17:58;14.10;;;2.47;;
36799;SDS011;22752;51.960;5.886;2022-10-16T10:22:52;9.98;;;1.98;;
36799;SDS011;22752;51.960;5.886;2022-10-16T10:33:41;8.50;;;2.20;;
36799;SDS011;22752;51.960;5.886;2022-10-16T10:36:36;12.02;;;2.80;;
36799;SDS011;22752;51.960;5.886;2022-10-16T10:44:56;11.15;;;2.35;;
36799;SDS011;22752;51.960;5.886;2022-10-16T10:47:47;11.45;;;3.20;;
36799;SDS011;22752;51.960;5.886;2022-10-16T10:50:53;13.90;;;2.72;;
36799;SDS011;22752;51.960;5.886;2022-10-16T10:53:46;16.00;;;3.00;;
36799;SDS011;22752;51.960;5.886;2022-10-16T11:01:33;9.52;;;2.30;;
36799;SDS011;22752;51.960;5.886;2022-10-16T11:07:25;13.38;;;2.20;;
36799;SDS011;22752;51.960;5.886;2022-10-16T11:09:59;6.55;;;2.17;;
36799;SDS011;22752;51.960;5.886;2022-10-16T11:12:40;9.05;;;2.03;;
36799;SDS011;22752;51.960;5.886;2022-10-16T11:17:45;8.40;;;2.03;;
36799;SDS011;22752;51.960;5.886;2022-10-16T11:20:18;9.27;;;2.30;;
36799;SDS011;22752;51.960;5.886;2022-10-16T11:35:57;10.57;;;2.28;;
36799;SDS011;22752;51.960;5.886;2022-10-16T11:41:18;10.20;;;2.15;;
36799;SDS011;22752;51.960;5.886;2022-10-16T11:50:09;11.47;;;2.30;;
36799;SDS011;22752;51.960;5.886;2022-10-16T11:56:05;10.20;;;2.20;;
36799;SDS011;22752;51.960;5.886;2022-10-16T11:58:32;10.25;;;2.10;;
36799;SDS011;22752;51.960;5.886;2022-10-16T12:04:11;9.07;;;2.47;;
36799;SDS011;22752;51.960;5.886;2022-10-16T12:07:07;10.23;;;2.63;;
36799;SDS011;22752;51.960;5.886;2022-10-16T12:09:38;9.65;;;2.38;;
36799;SDS011;22752;51.960;5.886;2022-10-16T12:12:05;10.50;;;2.40;;
36799;SDS011;22752;51.960;5.886;2022-10-16T12:15:00;11.43;;;2.47;;
36799;SDS011;22752;51.960;5.886;2022-10-16T12:17:45;9.02;;;2.10;;
36799;SDS011;22752;51.960;5.886;2022-10-16T12:22:54;4.88;;;1.90;;
36799;SDS011;22752;51.960;5.886;2022-10-16T12:25:32;16.27;;;2.75;;
36799;SDS011;22752;51.960;5.886;2022-10-16T12:28:01;8.48;;;2.10;;
36799;SDS011;22752;51.960;5.886;2022-10-16T12:30:35;10.45;;;2.47;;
36799;SDS011;22752;51.960;5.886;2022-10-16T12:33:23;9.55;;;1.98;;
36799;SDS011;22752;51.960;5.886;2022-10-16T12:35:50;7.35;;;2.00;;
36799;SDS011;22752;51.960;5.886;2022-10-16T12:40:47;14.80;;;2.38;;
36799;SDS011;22752;51.960;5.886;2022-10-16T12:43:26;11.63;;;2.67;;
36799;SDS011;22752;51.960;5.886;2022-10-16T12:46:04;10.45;;;2.30;;
36799;SDS011;22752;51.960;5.886;2022-10-16T12:48:45;10.90;;;2.20;;
36799;SDS011;22752;51.960;5.886;2022-10-16T12:59:43;7.65;;;2.03;;
36799;SDS011;22752;51.960;5.886;2022-10-16T13:05:02;9.45;;;2.08;;
36799;SDS011;22752;51.960;5.886;2022-10-16T13:07:41;11.18;;;2.35;;
36799;SDS011;22752;51.960;5.886;2022-10-16T13:18:32;10.50;;;2.20;;
36799;SDS011;22752;51.960;5.886;2022-10-16T13:27:03;14.32;;;2.58;;
36799;SDS011;22752;51.960;5.886;2022-10-16T13:29:37;12.00;;;2.30;;
36799;SDS011;22752;51.960;5.886;2022-10-16T13:32:09;10.18;;;2.28;;
36799;SDS011;22752;51.960;5.886;2022-10-16T13:34:44;9.90;;;2.25;;
36799;SDS011;22752;51.960;5.886;2022-10-16T13:37:21;10.98;;;1.95;;
36799;SDS011;22752;51.960;5.886;2022-10-16T13:39:48;12.57;;;2.42;;
36799;SDS011;22752;51.960;5.886;2022-10-16T13:44:52;11.27;;;2.28;;
36799;SDS011;22752;51.960;5.886;2022-10-16T13:47:20;8.02;;;2.08;;
36799;SDS011;22752;51.960;5.886;2022-10-16T13:50:14;10.52;;;2.55;;
36799;SDS011;22752;51.960;5.886;2022-10-16T13:52:42;14.10;;;2.63;;
36799;SDS011;22752;51.960;5.886;2022-10-16T14:00:23;12.60;;;2.38;;
36799;SDS011;22752;51.960;5.886;2022-10-16T14:03:02;6.50;;;1.98;;
36799;SDS011;22752;51.960;5.886;2022-10-16T14:05:30;12.13;;;2.03;;
36799;SDS011;22752;51.960;5.886;2022-10-16T14:07:56;11.85;;;2.17;;
36799;SDS011;22752;51.960;5.886;2022-10-16T14:10:24;10.13;;;2.13;;
36799;SDS011;22752;51.960;5.886;2022-10-16T14:12:59;9.68;;;2.17;;
36799;SDS011;22752;51.960;5.886;2022-10-16T14:15:27;8.30;;;1.80;;
36799;SDS011;22752;51.960;5.886;2022-10-16T14:17:56;7.28;;;1.80;;
36799;SDS011;22752;51.960;5.886;2022-10-16T14:20:27;10.45;;;2.78;;
36799;SDS011;22752;51.960;5.886;2022-10-16T14:25:27;11.48;;;2.58;;
36799;SDS011;22752;51.960;5.886;2022-10-16T14:30:30;7.22;;;1.90;;
36799;SDS011;22752;51.960;5.886;2022-10-16T14:32:59;10.98;;;2.22;;
36799;SDS011;22752;51.960;5.886;2022-10-16T14:37:52;6.70;;;2.00;;
36799;SDS011;22752;51.960;5.886;2022-10-16T14:40:19;13.63;;;2.78;;
36799;SDS011;22752;51.960;5.886;2022-10-16T14:42:48;8.43;;;1.70;;
36799;SDS011;22752;51.960;5.886;2022-10-16T14:45:15;7.55;;;1.73;;
36799;SDS011;22752;51.960;5.886;2022-10-16T14:47:49;7.63;;;1.70;;
36799;SDS011;22752;51.960;5.886;2022-10-16T14:50:18;12.77;;;2.22;;
36799;SDS011;22752;51.960;5.886;2022-10-16T14:52:44;8.30;;;2.08;;
36799;SDS011;22752;51.960;5.886;2022-10-16T14:55:09;9.88;;;1.85;;
36799;SDS011;22752;51.960;5.886;2022-10-16T14:57:35;5.80;;;1.70;;
36799;SDS011;22752;51.960;5.886;2022-10-16T15:00:04;5.82;;;1.40;;
36799;SDS011;22752;51.960;5.886;2022-10-16T15:02:39;10.30;;;1.67;;
36799;SDS011;22752;51.960;5.886;2022-10-16T15:07:40;8.80;;;2.10;;
36799;SDS011;22752;51.960;5.886;2022-10-16T15:10:05;11.75;;;2.10;;
36799;SDS011;22752;51.960;5.886;2022-10-16T15:12:31;11.52;;;2.00;;
36799;SDS011;22752;51.960;5.886;2022-10-16T15:14:57;7.55;;;2.00;;
36799;SDS011;22752;51.960;5.886;2022-10-16T15:17:22;6.88;;;1.65;;
36799;SDS011;22752;51.960;5.886;2022-10-16T15:19:48;5.35;;;1.75;;
36799;SDS011;22752;51.960;5.886;2022-10-16T15:22:14;7.35;;;1.70;;
36799;SDS011;22752;51.960;5.886;2022-10-16T15:24:39;9.00;;;2.15;;
36799;SDS011;22752;51.960;5.886;2022-10-16T15:27:05;5.22;;;1.48;;
36799;SDS011;22752;51.960;5.886;2022-10-16T15:29:31;6.60;;;1.63;;
36799;SDS011;22752;51.960;5.886;2022-10-16T15:31:56;10.43;;;1.80;;
36799;SDS011;22752;51.960;5.886;2022-10-16T15:34:22;5.68;;;1.40;;
36799;SDS011;22752;51.960;5.886;2022-10-16T15:36:48;4.22;;;1.40;;
36799;SDS011;22752;51.960;5.886;2022-10-16T15:39:20;6.80;;;1.60;;
36799;SDS011;22752;51.960;5.886;2022-10-16T15:41:47;5.97;;;1.45;;
36799;SDS011;22752;51.960;5.886;2022-10-16T15:44:15;4.00;;;1.17;;
36799;SDS011;22752;51.960;5.886;2022-10-16T15:46:42;6.75;;;1.75;;
36799;SDS011;22752;51.960;5.886;2022-10-16T15:49:07;5.78;;;1.73;;
36799;SDS011;22752;51.960;5.886;2022-10-16T15:51:34;5.72;;;1.65;;
36799;SDS011;22752;51.960;5.886;2022-10-16T15:54:04;5.97;;;1.85;;
36799;SDS011;22752;51.960;5.886;2022-10-16T15:56:29;7.45;;;2.15;;
36799;SDS011;22752;51.960;5.886;2022-10-16T15:58:58;5.55;;;1.52;;
36799;SDS011;22752;51.960;5.886;2022-10-16T16:01:24;4.50;;;1.83;;
36799;SDS011;22752;51.960;5.886;2022-10-16T16:03:54;4.28;;;1.60;;
36799;SDS011;22752;51.960;5.886;2022-10-16T16:06:20;6.45;;;1.60;;
36799;SDS011;22752;51.960;5.886;2022-10-16T16:08:48;9.40;;;1.90;;
36799;SDS011;22752;51.960;5.886;2022-10-16T16:11:15;4.40;;;1.48;;
36799;SDS011;22752;51.960;5.886;2022-10-16T16:13:42;4.97;;;1.40;;
36799;SDS011;22752;51.960;5.886;2022-10-16T16:16:08;4.32;;;1.13;;
36799;SDS011;22752;51.960;5.886;2022-10-16T16:18:36;8.38;;;1.77;;
36799;SDS011;22752;51.960;5.886;2022-10-16T16:21:02;4.05;;;1.50;;
36799;SDS011;22752;51.960;5.886;2022-10-16T16:23:29;4.45;;;1.52;;
36799;SDS011;22752;51.960;5.886;2022-10-16T16:28:40;3.88;;;1.60;;
36799;SDS011;22752;51.960;5.886;2022-10-16T16:31:07;8.65;;;2.30;;
36799;SDS011;22752;51.960;5.886;2022-10-16T16:33:34;9.02;;;2.40;;
36799;SDS011;22752;51.960;5.886;2022-10-16T16:36:00;7.82;;;1.88;;
36799;SDS011;22752;51.960;5.886;2022-10-16T16:38:28;7.55;;;1.80;;
36799;SDS011;22752;51.960;5.886;2022-10-16T16:40:54;5.35;;;2.10;;
36799;SDS011;22752;51.960;5.886;2022-10-16T16:43:27;4.70;;;1.60;;
36799;SDS011;22752;51.960;5.886;2022-10-16T16:45:53;4.07;;;2.00;;
36799;SDS011;22752;51.960;5.886;2022-10-16T16:48:19;4.82;;;2.00;;
36799;SDS011;22752;51.960;5.886;2022-10-16T16:50:45;4.93;;;1.58;;
36799;SDS011;22752;51.960;5.886;2022-10-16T16:53:11;8.23;;;2.17;;
36799;SDS011;22752;51.960;5.886;2022-10-16T16:55:36;7.28;;;2.08;;
36799;SDS011;22752;51.960;5.886;2022-10-16T16:58:02;7.22;;;1.88;;
36799;SDS011;22752;51.960;5.886;2022-10-16T17:00:29;6.78;;;2.10;;
36799;SDS011;22752;51.960;5.886;2022-10-16T17:02:55;6.72;;;2.00;;
36799;SDS011;22752;51.960;5.886;2022-10-16T17:05:22;8.68;;;2.00;;
36799;SDS011;22752;51.960;5.886;2022-10-16T17:07:48;6.30;;;1.90;;
36799;SDS011;22752;51.960;5.886;2022-10-16T17:10:13;8.35;;;1.83;;
36799;SDS011;22752;51.960;5.886;2022-10-16T17:12:39;5.88;;;1.95;;
36799;SDS011;22752;51.960;5.886;2022-10-16T17:15:05;4.95;;;1.83;;
36799;SDS011;22752;51.960;5.886;2022-10-16T17:17:31;7.53;;;2.17;;
36799;SDS011;22752;51.960;5.886;2022-10-16T17:19:57;7.13;;;2.22;;
36799;SDS011;22752;51.960;5.886;2022-10-16T17:22:23;8.02;;;2.42;;
36799;SDS011;22752;51.960;5.886;2022-10-16T17:24:48;9.68;;;2.28;;
36799;SDS011;22752;51.960;5.886;2022-10-16T17:27:16;6.85;;;2.30;;